createdAt,value
2022-08-11T00:01:19.588Z,18.50
2022-08-11T00:04:04.513Z,18.50
2022-08-11T00:06:37.484Z,18.50
2022-08-11T00:09:10.778Z,18.50
2022-08-11T00:11:58.683Z,18.60
2022-08-11T00:14:36.801Z,18.60
2022-08-11T00:17:09.567Z,18.60
2022-08-11T00:20:13.086Z,18.70
2022-08-11T00:22:35.517Z,18.70
2022-08-11T00:25:16.031Z,18.70
2022-08-11T00:27:46.913Z,18.70
2022-08-11T00:30:17.893Z,18.60
2022-08-11T00:32:55.352Z,18.60
2022-08-11T00:35:54.808Z,18.60
2022-08-11T00:38:24.159Z,18.60
2022-08-11T00:41:02.445Z,18.60
2022-08-11T00:43:48.691Z,18.50
2022-08-11T00:46:47.434Z,18.50
2022-08-11T00:49:36.347Z,18.40
2022-08-11T00:52:35.366Z,18.40
2022-08-11T00:55:38.452Z,18.40
2022-08-11T00:58:22.515Z,18.30
2022-08-11T01:01:16.767Z,18.30
2022-08-11T01:03:53.673Z,18.30
2022-08-11T01:06:31.263Z,18.10
2022-08-11T01:09:22.313Z,18.10
2022-08-11T01:12:19.940Z,18.00
2022-08-11T01:15:05.130Z,18.00
2022-08-11T01:17:56.531Z,18.00
2022-08-11T01:21:07.067Z,17.90
2022-08-11T01:23:36.849Z,17.80
2022-08-11T01:26:38.115Z,17.70
2022-08-11T01:29:49.221Z,17.70
2022-08-11T01:32:36.160Z,17.60
2022-08-11T01:35:27.671Z,17.50
2022-08-11T01:38:34.406Z,17.50
2022-08-11T01:41:22.514Z,17.40
2022-08-11T01:44:25.565Z,17.30
2022-08-11T01:47:02.194Z,17.20
2022-08-11T01:50:09.886Z,17.00
2022-08-11T01:53:11.032Z,16.90
2022-08-11T01:56:04.474Z,16.90
2022-08-11T01:58:58.551Z,16.80
2022-08-11T02:01:49.695Z,16.70
2022-08-11T02:04:49.637Z,16.60
2022-08-11T02:07:32.655Z,16.60
2022-08-11T02:10:38.175Z,16.50
2022-08-11T02:13:36.729Z,16.40
2022-08-11T02:16:09.946Z,16.40
2022-08-11T02:19:10.260Z,16.30
2022-08-11T02:22:12.875Z,16.20
2022-08-11T02:25:35.812Z,16.20
2022-08-11T02:28:18.910Z,16.20
2022-08-11T02:32:24.540Z,16.20
2022-08-11T02:34:41.618Z,16.10
2022-08-11T02:37:28.295Z,16.10
2022-08-11T02:40:04.709Z,16.10
2022-08-11T02:42:41.555Z,16.10
2022-08-11T02:45:11.411Z,16.10
2022-08-11T02:48:26.154Z,16.00
2022-08-11T02:51:14.636Z,15.90
2022-08-11T02:54:02.382Z,15.90
2022-08-11T02:56:36.848Z,15.90
2022-08-11T02:59:35.653Z,16.00
2022-08-11T03:02:23.914Z,16.00
2022-08-11T03:05:11.185Z,16.00
2022-08-11T03:08:02.996Z,16.00
2022-08-11T03:10:32.944Z,15.90
2022-08-11T03:13:47.049Z,15.80
2022-08-11T03:16:59.679Z,15.80
2022-08-11T03:19:30.323Z,15.70
2022-08-11T03:22:18.734Z,15.60
2022-08-11T03:24:48.439Z,15.60
2022-08-11T03:27:30.031Z,15.60
2022-08-11T03:30:25.806Z,15.50
2022-08-11T03:33:38.230Z,15.50
2022-08-11T03:36:54.517Z,15.60
2022-08-11T03:39:57.211Z,15.50
2022-08-11T03:42:46.480Z,15.50
2022-08-11T03:45:37.395Z,15.50
2022-08-11T03:48:39.104Z,15.40
2022-08-11T03:51:17.887Z,15.40
2022-08-11T03:53:55.302Z,15.40
2022-08-11T03:56:41.864Z,15.40
2022-08-11T03:59:20.582Z,15.50
2022-08-11T04:02:09.406Z,15.50
2022-08-11T04:05:25.837Z,15.50
2022-08-11T04:08:03.335Z,15.50
2022-08-11T04:10:45.434Z,15.40
2022-08-11T04:13:42.251Z,15.40
2022-08-11T04:16:54.139Z,15.30
2022-08-11T04:19:36.412Z,15.30
2022-08-11T04:22:14.946Z,15.20
2022-08-11T04:24:53.184Z,15.20
2022-08-11T04:28:00.922Z,15.10
2022-08-11T04:30:46.564Z,15.10
2022-08-11T04:33:47.058Z,15.00
2022-08-11T04:37:17.575Z,15.00
2022-08-11T04:40:05.748Z,15.00
2022-08-11T04:43:19.874Z,15.00
2022-08-11T04:46:14.257Z,15.00
2022-08-11T04:49:24.268Z,15.10
2022-08-11T04:52:59.030Z,15.10
2022-08-11T04:56:13.441Z,15.10
2022-08-11T05:02:30.395Z,15.00
2022-08-11T05:05:30.389Z,15.10
2022-08-11T05:08:28.739Z,15.10
2022-08-11T05:11:32.382Z,15.20
2022-08-11T05:14:46.053Z,15.30
2022-08-11T05:17:36.024Z,15.40
2022-08-11T05:20:21.904Z,15.50
2022-08-11T05:23:09.274Z,15.60
2022-08-11T05:34:46.330Z,15.90
2022-08-11T05:37:29.671Z,15.90
2022-08-11T05:40:24.209Z,16.00
2022-08-11T05:43:14.696Z,16.10
2022-08-11T05:46:14.963Z,16.20
2022-08-11T05:49:01.537Z,16.40
2022-08-11T05:52:04.860Z,16.40
2022-08-11T05:54:51.533Z,16.60
2022-08-11T05:57:48.589Z,16.70
2022-08-11T06:00:19.438Z,16.80
2022-08-11T06:02:56.566Z,16.90
2022-08-11T06:05:44.089Z,17.00
2022-08-11T06:08:13.011Z,17.10
2022-08-11T06:10:42.406Z,17.20
2022-08-11T06:13:15.864Z,17.30
2022-08-11T06:15:55.219Z,17.40
2022-08-11T06:18:24.845Z,17.60
2022-08-11T06:20:55.875Z,17.70
2022-08-11T06:23:25.229Z,17.90
2022-08-11T06:25:58.074Z,18.00
2022-08-11T06:28:36.214Z,18.10
2022-08-11T06:31:23.603Z,18.20
2022-08-11T06:34:40.277Z,18.30
2022-08-11T06:38:04.701Z,18.50
2022-08-11T06:41:06.277Z,18.70
2022-08-11T06:43:56.017Z,18.80
2022-08-11T06:46:52.410Z,18.90
2022-08-11T06:49:49.888Z,19.00
2022-08-11T06:52:35.700Z,19.20
2022-08-11T06:55:56.952Z,19.40
2022-08-11T06:58:40.536Z,19.60
2022-08-11T07:01:14.295Z,19.80
2022-08-11T07:03:47.766Z,19.90
2022-08-11T07:06:50.560Z,20.10
2022-08-11T07:10:04.348Z,20.20
2022-08-11T07:13:08.298Z,20.40
2022-08-11T07:16:12.672Z,20.70
2022-08-11T07:18:54.065Z,20.90
2022-08-11T07:22:02.374Z,21.10
2022-08-11T07:25:15.152Z,21.30
2022-08-11T07:28:03.104Z,21.60
2022-08-11T07:30:36.786Z,21.80
2022-08-11T07:33:06.628Z,22.00
2022-08-11T07:35:47.594Z,22.10
2022-08-11T07:38:25.301Z,22.20
2022-08-11T07:40:52.410Z,22.40
2022-08-11T07:43:20.411Z,22.50
2022-08-11T07:54:16.983Z,23.10
2022-08-11T07:56:54.721Z,23.30
2022-08-11T08:00:03.612Z,23.40
2022-08-11T08:03:01.380Z,23.50
2022-08-11T08:05:48.656Z,23.80
2022-08-11T08:08:34.712Z,24.00
2022-08-11T08:11:27.474Z,24.20
2022-08-11T08:14:14.006Z,24.40
2022-08-11T08:17:02.340Z,24.60
2022-08-11T08:19:32.604Z,24.80
2022-08-11T08:22:07.125Z,25.00
2022-08-11T08:24:52.665Z,25.20
2022-08-11T08:27:25.016Z,25.30
2022-08-11T08:30:18.254Z,25.30
2022-08-11T08:32:45.075Z,25.50
2022-08-11T08:35:12.003Z,25.60
2022-08-11T08:37:45.719Z,25.80
2022-08-11T08:40:19.700Z,26.00
2022-08-11T08:42:58.999Z,26.10
2022-08-11T08:45:26.693Z,26.40
2022-08-11T08:48:10.264Z,26.50
2022-08-11T08:51:02.998Z,26.70
2022-08-11T08:53:38.728Z,26.90
2022-08-11T08:56:29.466Z,27.00
2022-08-11T08:59:00.252Z,27.20
2022-08-11T09:01:37.221Z,27.20
2022-08-11T09:04:12.356Z,27.30
2022-08-11T09:06:44.801Z,27.50
2022-08-11T09:09:17.730Z,27.60
2022-08-11T09:11:49.913Z,27.80
2022-08-11T09:14:18.231Z,27.90
2022-08-11T09:16:49.047Z,28.00
2022-08-11T09:19:17.736Z,28.20
2022-08-11T09:22:06.193Z,28.20
2022-08-11T09:24:53.824Z,28.40
2022-08-11T09:27:24.384Z,28.60
2022-08-11T09:29:52.530Z,28.60
2022-08-11T09:32:23.263Z,28.70
2022-08-11T09:34:54.535Z,28.70
2022-08-11T09:37:55.178Z,28.90
2022-08-11T09:40:29.983Z,28.90
2022-08-11T09:43:25.188Z,29.00
2022-08-11T09:45:53.327Z,29.10
2022-08-11T09:48:24.887Z,29.10
2022-08-11T09:50:55.997Z,29.30
2022-08-11T09:53:35.873Z,29.50
2022-08-11T09:56:29.940Z,29.70
2022-08-11T09:58:59.163Z,29.80
2022-08-11T10:01:34.928Z,29.50
2022-08-11T10:04:14.659Z,29.40
2022-08-11T10:07:04.529Z,29.10
2022-08-11T10:09:43.456Z,29.00
2022-08-11T10:12:21.082Z,28.90
2022-08-11T10:15:10.940Z,28.60
2022-08-11T10:18:03.581Z,28.70
2022-08-11T10:20:37.050Z,28.90
2022-08-11T10:23:28.316Z,29.30
2022-08-11T10:26:17.249Z,29.60
2022-08-11T10:29:09.985Z,30.00
2022-08-11T10:31:57.607Z,30.20
2022-08-11T10:34:31.969Z,30.50
2022-08-11T10:37:02.338Z,30.50
2022-08-11T10:39:29.374Z,30.50
2022-08-11T10:42:25.771Z,30.60
2022-08-11T10:44:58.094Z,30.80
2022-08-11T10:47:38.702Z,30.90
2022-08-11T10:50:32.789Z,31.10
2022-08-11T10:53:20.761Z,31.10
2022-08-11T10:56:07.385Z,31.20
2022-08-11T10:58:49.346Z,31.30
2022-08-11T11:01:17.781Z,31.40
2022-08-11T11:03:47.267Z,31.50
2022-08-11T11:06:28.360Z,31.50
2022-08-11T11:09:41.286Z,31.50
2022-08-11T11:12:43.216Z,31.40
2022-08-11T11:15:30.921Z,31.70
2022-08-11T11:18:10.932Z,31.70
2022-08-11T11:20:47.645Z,31.90
2022-08-11T11:23:19.752Z,32.00
2022-08-11T11:26:06.836Z,32.00
2022-08-11T11:29:15.596Z,32.10
2022-08-11T11:31:54.342Z,32.40
2022-08-11T11:34:53.027Z,32.60
2022-08-11T11:37:23.006Z,32.60
2022-08-11T11:39:54.541Z,32.60
2022-08-11T11:42:26.486Z,32.40
2022-08-11T11:44:56.013Z,32.30
2022-08-11T11:47:26.481Z,32.50
2022-08-11T11:49:54.678Z,32.80
2022-08-11T11:52:22.777Z,33.00
2022-08-11T11:54:54.751Z,33.00
2022-08-11T11:57:40.729Z,33.20
2022-08-11T12:00:42.973Z,33.20
2022-08-11T12:03:13.919Z,33.20
2022-08-11T12:05:48.263Z,33.30
2022-08-11T12:08:16.945Z,33.40
2022-08-11T12:11:12.903Z,33.70
2022-08-11T12:13:52.294Z,33.70
2022-08-11T12:16:33.499Z,33.70
2022-08-11T12:19:12.635Z,33.80
2022-08-11T12:22:03.371Z,33.80
2022-08-11T12:24:50.587Z,33.80
2022-08-11T12:27:25.575Z,33.80
2022-08-11T12:30:00.616Z,33.60
2022-08-11T12:32:32.369Z,33.80
2022-08-11T12:35:06.639Z,34.10
2022-08-11T12:37:47.843Z,34.20
2022-08-11T12:41:13.830Z,34.40
2022-08-11T12:43:57.137Z,34.70
2022-08-11T12:46:38.240Z,35.10
2022-08-11T12:49:36.302Z,35.10
2022-08-11T12:52:13.261Z,35.00
2022-08-11T12:54:59.726Z,34.60
2022-08-11T12:57:48.118Z,34.50
2022-08-11T13:00:35.322Z,34.70
2022-08-11T13:03:23.964Z,34.70
2022-08-11T13:05:54.421Z,34.70
2022-08-11T13:08:24.777Z,34.50
2022-08-11T13:11:11.738Z,34.20
2022-08-11T13:13:52.763Z,34.20
2022-08-11T13:16:58.930Z,34.20
2022-08-11T13:19:30.001Z,34.30
2022-08-11T13:22:01.642Z,34.30
2022-08-11T13:24:35.281Z,34.60
2022-08-11T13:27:02.529Z,34.90
2022-08-11T13:29:35.737Z,34.90
2022-08-11T13:32:10.668Z,35.20
2022-08-11T13:34:43.537Z,35.10
2022-08-11T13:37:13.753Z,35.30
2022-08-11T13:39:49.759Z,35.20
2022-08-11T13:46:42.923Z,35.40
2022-08-11T13:49:20.924Z,35.50
2022-08-11T13:51:51.795Z,35.60
2022-08-11T13:54:22.658Z,35.70
2022-08-11T13:56:53.391Z,35.70
2022-08-11T13:59:29.548Z,35.60
2022-08-11T14:02:28.189Z,35.40
2022-08-11T14:05:10.755Z,35.30
2022-08-11T14:07:44.501Z,35.00
2022-08-11T14:10:16.431Z,34.30
2022-08-11T14:13:11.810Z,34.40
2022-08-11T14:15:42.242Z,34.30
2022-08-11T14:18:20.512Z,34.50
2022-08-11T14:21:15.077Z,34.70
2022-08-11T14:23:47.489Z,34.70
2022-08-11T14:26:23.164Z,35.00
2022-08-11T14:28:59.899Z,35.20
2022-08-11T14:31:32.009Z,35.40
2022-08-11T14:34:02.629Z,35.50
2022-08-11T14:36:41.370Z,35.60
2022-08-11T14:39:12.441Z,35.60
2022-08-11T14:42:10.425Z,35.70
2022-08-11T14:45:24.629Z,35.70
2022-08-11T14:48:14.184Z,35.70
2022-08-11T14:50:41.094Z,35.60
2022-08-11T14:53:10.433Z,35.50
2022-08-11T14:56:03.097Z,35.30
2022-08-11T14:58:35.632Z,35.20
2022-08-11T15:01:28.646Z,35.10
2022-08-11T15:04:25.094Z,35.00
2022-08-11T15:06:46.434Z,34.80
2022-08-11T15:09:21.983Z,34.60
2022-08-11T15:12:08.080Z,34.40
2022-08-11T15:15:15.974Z,34.30
2022-08-11T15:17:43.955Z,34.30
2022-08-11T15:20:33.300Z,34.20
2022-08-11T15:23:20.027Z,34.00
2022-08-11T15:25:52.585Z,34.00
2022-08-11T15:28:39.743Z,34.00
2022-08-11T15:31:29.855Z,34.10
2022-08-11T15:34:28.830Z,34.10
2022-08-11T15:40:46.602Z,34.10
2022-08-11T15:44:07.387Z,34.00
2022-08-11T15:46:55.328Z,33.60
2022-08-11T15:55:57.236Z,33.00
2022-08-11T15:59:10.755Z,32.80
2022-08-11T16:02:01.541Z,32.60
2022-08-11T16:04:30.455Z,32.30
2022-08-11T16:07:12.783Z,32.20
2022-08-11T16:10:00.479Z,31.90
2022-08-11T16:12:38.599Z,31.80
2022-08-11T16:15:29.149Z,31.70
2022-08-11T16:18:04.609Z,31.60
2022-08-11T16:20:34.154Z,31.50
2022-08-11T16:23:06.306Z,31.50
2022-08-11T16:27:01.849Z,31.40
2022-08-11T16:28:23.774Z,31.30
2022-08-11T16:30:53.222Z,31.30
2022-08-11T16:33:49.440Z,31.30
2022-08-11T16:36:31.282Z,31.30
2022-08-11T16:38:59.662Z,31.20
2022-08-11T16:41:49.294Z,31.20
2022-08-11T16:44:43.416Z,31.10
2022-08-11T16:47:13.344Z,31.00
2022-08-11T16:49:52.537Z,30.90
2022-08-11T16:52:23.123Z,30.90
2022-08-11T16:54:52.988Z,30.80
2022-08-11T16:57:43.402Z,30.70
2022-08-11T17:00:14.197Z,30.70
2022-08-11T17:03:09.135Z,30.60
2022-08-11T17:06:00.032Z,30.50
2022-08-11T17:09:13.951Z,30.40
2022-08-11T17:12:10.289Z,30.30
2022-08-11T17:14:53.518Z,30.20
2022-08-11T17:17:49.310Z,30.20
2022-08-11T17:20:41.298Z,30.00
2022-08-11T17:27:40.600Z,29.90
2022-08-11T17:30:10.132Z,29.80
2022-08-11T17:33:02.206Z,29.70
2022-08-11T17:35:40.279Z,29.70
2022-08-11T17:38:08.565Z,29.50
2022-08-11T17:41:01.081Z,29.50
2022-08-11T17:43:47.953Z,29.40
2022-08-11T17:46:37.347Z,29.30
2022-08-11T17:49:08.629Z,29.30
2022-08-11T17:51:55.735Z,29.20
2022-08-11T17:54:44.978Z,29.20
2022-08-11T17:57:31.868Z,29.10
2022-08-11T18:00:00.022Z,28.90
2022-08-11T18:03:03.938Z,28.90
2022-08-11T18:05:33.830Z,28.80
2022-08-11T18:08:24.472Z,28.70
2022-08-11T18:11:10.973Z,28.60
2022-08-11T18:14:02.305Z,28.50
2022-08-11T18:16:47.921Z,28.40
2022-08-11T18:19:33.571Z,28.30
2022-08-11T18:22:26.542Z,28.20
2022-08-11T18:25:16.617Z,28.10
2022-08-11T18:28:04.465Z,28.10
2022-08-11T18:31:03.755Z,28.00
2022-08-11T18:34:08.978Z,27.90
2022-08-11T18:37:32.854Z,27.90
2022-08-11T18:40:27.663Z,27.80
2022-08-11T18:43:18.501Z,27.70
2022-08-11T18:46:08.235Z,27.60
2022-08-11T18:48:57.326Z,27.50
2022-08-11T18:51:44.345Z,27.40
2022-08-11T18:54:31.617Z,27.20
2022-08-11T19:00:26.277Z,27.00
2022-08-11T19:03:14.485Z,26.80
2022-08-11T19:06:06.188Z,26.50
2022-08-11T19:09:15.485Z,26.30
2022-08-11T19:12:02.916Z,26.00
2022-08-11T19:14:53.324Z,25.70
2022-08-11T19:17:43.564Z,25.40
2022-08-11T19:20:37.965Z,25.10
2022-08-11T19:23:27.738Z,24.90
2022-08-11T19:26:14.899Z,24.70
2022-08-11T19:29:06.968Z,24.60
2022-08-11T19:31:54.972Z,24.40
2022-08-11T19:34:43.136Z,24.20
2022-08-11T19:37:31.420Z,24.10
2022-08-11T19:40:42.461Z,23.90
2022-08-11T19:43:31.161Z,23.70
2022-08-11T19:46:20.188Z,23.50
2022-08-11T19:49:10.732Z,23.30
2022-08-11T19:51:58.038Z,23.10
2022-08-11T19:54:52.351Z,22.90
2022-08-11T19:57:41.359Z,22.80
2022-08-11T20:00:34.358Z,22.70
2022-08-11T20:03:22.841Z,22.60
2022-08-11T20:06:11.689Z,22.40
2022-08-11T20:09:01.453Z,22.30
2022-08-11T20:11:51.532Z,22.30
2022-08-11T20:14:38.936Z,22.20
2022-08-11T20:17:30.153Z,22.10
2022-08-11T20:20:17.838Z,22.00
2022-08-11T20:23:08.511Z,21.90
2022-08-11T20:26:14.086Z,21.80
2022-08-11T20:29:06.816Z,21.70
2022-08-11T20:31:56.495Z,21.60
2022-08-11T20:34:43.013Z,21.50
2022-08-11T20:37:29.856Z,21.50
2022-08-11T20:40:23.709Z,21.30
2022-08-11T20:44:07.916Z,21.20
2022-08-11T20:46:18.540Z,21.10
2022-08-11T20:49:05.667Z,21.00
2022-08-11T20:51:52.878Z,21.00
2022-08-11T20:57:59.425Z,20.90
2022-08-11T21:00:53.546Z,20.80
2022-08-11T21:03:45.260Z,20.70
2022-08-11T21:06:43.020Z,20.60
2022-08-11T21:09:58.756Z,20.60
2022-08-11T21:12:41.217Z,20.40
2022-08-11T21:15:47.296Z,20.30
2022-08-11T21:21:46.684Z,20.00
2022-08-11T21:24:38.613Z,19.90
2022-08-11T21:27:35.787Z,19.80
2022-08-11T21:30:21.408Z,19.70
2022-08-11T21:33:08.054Z,19.60
2022-08-11T21:35:55.942Z,19.50
2022-08-11T21:38:48.860Z,19.40
2022-08-11T21:41:37.766Z,19.30
2022-08-11T21:44:29.596Z,19.30
2022-08-11T21:47:43.205Z,19.30
2022-08-11T21:50:54.487Z,19.20
2022-08-11T21:53:40.867Z,19.20
2022-08-11T21:56:31.227Z,19.20
2022-08-11T21:59:18.608Z,19.10
2022-08-11T22:02:12.030Z,19.10
2022-08-11T22:05:04.412Z,19.00
2022-08-11T22:07:51.956Z,18.90
2022-08-11T22:10:42.560Z,18.90
2022-08-11T22:13:32.542Z,18.90
2022-08-11T22:16:19.998Z,18.90
2022-08-11T22:19:13.351Z,18.90
2022-08-11T22:22:04.263Z,18.90
2022-08-11T22:24:52.737Z,19.00
2022-08-11T22:27:39.037Z,19.10
2022-08-11T22:30:30.291Z,19.10
2022-08-11T22:33:21.182Z,19.20
2022-08-11T22:42:17.829Z,19.30
2022-08-11T22:45:13.030Z,19.30
2022-08-11T22:48:02.868Z,19.20
2022-08-11T22:50:53.455Z,19.10
2022-08-11T22:53:54.957Z,18.90
2022-08-11T22:56:56.535Z,18.80
2022-08-11T23:02:47.996Z,18.80
2022-08-11T23:05:35.863Z,18.80
2022-08-11T23:12:07.933Z,18.80
2022-08-11T23:14:59.420Z,18.80
2022-08-11T23:20:54.712Z,18.70
2022-08-11T23:23:48.936Z,18.70
2022-08-11T23:26:40.877Z,18.70
2022-08-11T23:29:30.058Z,18.70
2022-08-11T23:32:27.040Z,18.70
2022-08-11T23:35:38.788Z,18.60
2022-08-11T23:38:24.368Z,18.40
2022-08-11T23:41:11.071Z,18.20
2022-08-11T23:43:58.372Z,18.10
2022-08-11T23:46:48.771Z,17.90
2022-08-11T23:49:37.533Z,17.80
2022-08-11T23:52:26.730Z,17.70
2022-08-11T23:55:26.385Z,17.50
2022-08-11T23:58:13.046Z,17.40
